Time;durP1;ratioP1;P1;durP2;ratioP2;P2;SDS_P1;SDS_P2;PMS_P1;PMS_P2;Temp;Humidity;BMP_temperature;BMP_pressure;BME280_temperature;BME280_humidity;BME280_pressure;Samples;Min_cycle;Max_cycle;Signal;HPM_P1;HPM_P2
2024/03/23 00:00:36;;;;;;;10.63;8.40;;;10.10;99.90;;;;;;493866;241;28035;-75
2024/03/23 00:02:37;;;;;;;16.97;10.70;;;10.10;99.90;;;;;;493976;241;28040;-74
2024/03/23 00:04:38;;;;;;;13.07;9.17;;;10.20;99.90;;;;;;493815;241;28210;-74
2024/03/23 00:06:39;;;;;;;19.07;11.57;;;10.20;99.90;;;;;;493921;237;28069;-74
2024/03/23 00:08:41;;;;;;;17.03;10.93;;;10.30;99.90;;;;;;493928;237;28359;-74
2024/03/23 00:10:42;;;;;;;17.73;11.40;;;10.40;99.90;;;;;;493962;241;28690;-75
2024/03/23 00:12:43;;;;;;;20.20;12.87;;;10.40;99.90;;;;;;493967;241;27704;-71
2024/03/23 00:14:44;;;;;;;20.17;13.30;;;10.40;99.90;;;;;;493922;241;28127;-74
2024/03/23 00:16:46;;;;;;;17.70;12.07;;;10.40;99.90;;;;;;493897;241;27822;-74
2024/03/23 00:18:47;;;;;;;18.13;11.17;;;10.40;99.90;;;;;;493958;237;28238;-74
2024/03/23 00:20:48;;;;;;;19.50;13.07;;;10.40;99.90;;;;;;493926;241;27970;-75
2024/03/23 00:22:49;;;;;;;15.70;12.10;;;10.50;99.90;;;;;;493931;237;28069;-74
2024/03/23 00:24:51;;;;;;;16.80;12.37;;;10.60;99.90;;;;;;493926;241;28727;-72
2024/03/23 00:26:52;;;;;;;24.00;11.97;;;10.60;99.90;;;;;;493953;241;28467;-75
2024/03/23 00:28:53;;;;;;;13.70;10.77;;;10.60;99.90;;;;;;493927;241;27975;-73
2024/03/23 00:30:54;;;;;;;18.57;11.43;;;10.60;99.90;;;;;;493940;241;28079;-74
2024/03/23 00:32:56;;;;;;;17.90;12.07;;;10.50;99.90;;;;;;493913;237;27946;-73
2024/03/23 00:34:57;;;;;;;20.90;11.43;;;10.50;99.90;;;;;;493868;241;28233;-73
2024/03/23 00:36:58;;;;;;;22.83;11.60;;;10.50;99.90;;;;;;493971;241;27931;-75
2024/03/23 00:38:59;;;;;;;18.93;12.17;;;10.50;99.90;;;;;;493870;237;28596;-73
2024/03/23 00:41:01;;;;;;;17.63;11.83;;;10.40;99.90;;;;;;493910;241;28509;-74
2024/03/23 00:43:02;;;;;;;13.97;9.40;;;10.40;99.90;;;;;;493911;241;28015;-73
2024/03/23 00:45:03;;;;;;;15.33;10.13;;;10.30;99.90;;;;;;493931;241;27950;-73
2024/03/23 00:47:05;;;;;;;12.93;10.57;;;10.20;99.90;;;;;;493912;241;28050;-75
2024/03/23 00:49:06;;;;;;;19.23;11.13;;;10.10;99.90;;;;;;493866;241;27940;-74
2024/03/23 00:51:07;;;;;;;20.47;12.80;;;10.10;99.90;;;;;;493850;241;28020;-74
2024/03/23 00:53:08;;;;;;;26.13;13.47;;;10.10;99.90;;;;;;493934;241;28814;-75
2024/03/23 00:55:10;;;;;;;18.27;13.17;;;10.10;99.90;;;;;;493805;241;28415;-73
2024/03/23 00:57:11;;;;;;;21.33;14.43;;;10.10;99.90;;;;;;493911;241;28106;-74
2024/03/23 00:59:13;;;;;;;14.93;10.30;;;10.10;99.90;;;;;;493860;241;27959;-73
2024/03/23 01:01:13;;;;;;;13.30;10.73;;;10.00;99.90;;;;;;493822;241;27783;-74
2024/03/23 01:03:15;;;;;;;12.53;9.30;;;9.90;99.90;;;;;;493947;237;28003;-75
2024/03/23 01:05:16;;;;;;;18.73;13.97;;;9.90;99.90;;;;;;493898;237;27942;-74
2024/03/23 01:07:17;;;;;;;19.77;13.67;;;9.90;99.90;;;;;;493936;241;28007;-74
2024/03/23 01:09:18;;;;;;;21.30;15.10;;;10.00;99.90;;;;;;493816;241;28507;-75
2024/03/23 01:11:20;;;;;;;19.07;14.00;;;10.10;99.90;;;;;;493987;241;28167;-73
2024/03/23 01:13:22;;;;;;;21.83;14.10;;;10.10;99.90;;;;;;493973;241;27981;-74
2024/03/23 01:15:22;;;;;;;16.13;12.90;;;10.10;99.90;;;;;;493890;241;27951;-74
2024/03/23 01:17:23;;;;;;;22.83;13.10;;;10.10;99.90;;;;;;493930;241;27985;-74
2024/03/23 01:19:25;;;;;;;19.20;12.17;;;10.10;99.90;;;;;;493910;241;27973;-74
2024/03/23 01:21:26;;;;;;;18.97;13.20;;;10.00;99.90;;;;;;493982;241;27953;-74
2024/03/23 01:23:27;;;;;;;22.50;14.10;;;10.00;99.90;;;;;;493972;241;28516;-74
2024/03/23 01:25:28;;;;;;;21.10;15.33;;;10.00;99.90;;;;;;493970;241;28489;-74
2024/03/23 01:27:30;;;;;;;24.40;14.43;;;10.00;99.90;;;;;;493965;241;27846;-73
2024/03/23 01:29:31;;;;;;;17.97;12.50;;;9.90;99.90;;;;;;493982;241;28082;-75
2024/03/23 01:31:32;;;;;;;18.77;13.77;;;9.90;99.90;;;;;;493990;241;27959;-74
2024/03/23 01:33:33;;;;;;;19.10;15.13;;;10.00;99.90;;;;;;493974;241;28134;-74
2024/03/23 01:35:35;;;;;;;24.27;15.17;;;9.90;99.90;;;;;;493958;241;27931;-73
2024/03/23 01:37:36;;;;;;;16.40;11.90;;;9.90;99.90;;;;;;493974;241;27998;-73
2024/03/23 01:39:37;;;;;;;25.23;15.10;;;9.80;99.90;;;;;;493903;241;28474;-74
2024/03/23 01:41:42;;;;;;;20.73;14.70;;;9.80;99.90;;;;;;493973;241;28448;-73
2024/03/23 01:43:41;;;;;;;19.27;13.90;;;9.80;99.90;;;;;;493675;241;27708;-73
2024/03/23 01:45:41;;;;;;;18.90;11.93;;;9.80;99.90;;;;;;493918;241;28021;-74
2024/03/23 01:47:42;;;;;;;21.23;13.60;;;9.80;99.90;;;;;;493990;241;27717;-73
2024/03/23 01:49:43;;;;;;;25.57;15.47;;;9.70;99.90;;;;;;493916;241;27633;-74
2024/03/23 01:51:45;;;;;;;25.83;14.87;;;9.70;99.90;;;;;;493927;241;28011;-73
2024/03/23 01:53:46;;;;;;;20.40;15.40;;;9.70;99.90;;;;;;493906;241;27743;-73
2024/03/23 01:55:47;;;;;;;20.23;14.37;;;9.70;99.90;;;;;;493978;241;27900;-75
2024/03/23 01:57:49;;;;;;;24.87;14.57;;;9.80;99.90;;;;;;493931;241;28526;-74
2024/03/23 01:59:50;;;;;;;23.80;16.47;;;9.80;99.90;;;;;;493903;241;28491;-74
2024/03/23 02:01:51;;;;;;;27.33;16.40;;;9.80;99.90;;;;;;493926;241;27970;-73
2024/03/23 02:03:52;;;;;;;25.50;16.50;;;9.80;99.90;;;;;;493945;241;27989;-73
2024/03/23 02:05:53;;;;;;;30.63;17.40;;;9.80;99.90;;;;;;493936;241;28061;-74
2024/03/23 02:07:55;;;;;;;20.80;15.30;;;9.80;99.90;;;;;;493950;241;28031;-73
2024/03/23 02:09:56;;;;;;;20.93;15.50;;;9.80;99.90;;;;;;493853;241;28062;-73
2024/03/23 02:11:57;;;;;;;20.80;13.90;;;9.80;99.90;;;;;;493914;241;27946;-73
2024/03/23 02:13:59;;;;;;;24.13;14.67;;;9.80;99.90;;;;;;493940;241;27905;-73
2024/03/23 02:16:00;;;;;;;18.10;13.47;;;9.80;99.90;;;;;;493966;241;28319;-74
2024/03/23 02:18:01;;;;;;;19.57;15.03;;;9.80;99.90;;;;;;493878;241;28388;-73
2024/03/23 02:20:02;;;;;;;21.37;14.13;;;9.80;99.90;;;;;;493857;241;28091;-74
2024/03/23 02:22:04;;;;;;;17.30;12.87;;;9.70;99.90;;;;;;493942;241;27770;-75
2024/03/23 02:24:05;;;;;;;18.70;13.27;;;9.70;99.90;;;;;;493963;241;27824;-73
2024/03/23 02:26:06;;;;;;;22.80;15.53;;;9.80;99.90;;;;;;493960;241;27745;-74
2024/03/23 02:28:07;;;;;;;26.30;17.13;;;9.70;99.90;;;;;;493909;237;27829;-73
2024/03/23 02:30:09;;;;;;;23.23;15.50;;;9.80;99.90;;;;;;493879;238;28041;-72
2024/03/23 02:32:10;;;;;;;31.90;17.67;;;9.80;99.90;;;;;;493983;241;27981;-75
2024/03/23 02:34:11;;;;;;;24.57;16.83;;;9.70;99.90;;;;;;493928;241;28534;-73
2024/03/23 02:36:12;;;;;;;21.40;15.63;;;9.70;99.90;;;;;;493917;241;28607;-74
2024/03/23 02:38:14;;;;;;;31.20;16.77;;;9.80;99.90;;;;;;493876;241;28057;-79
2024/03/23 02:40:15;;;;;;;27.80;17.17;;;9.80;99.90;;;;;;493953;241;27868;-73
2024/03/23 02:42:17;;;;;;;28.90;17.53;;;9.90;99.90;;;;;;493928;241;27887;-75
2024/03/23 02:44:17;;;;;;;24.87;17.07;;;9.90;99.90;;;;;;493883;241;27709;-73
2024/03/23 02:46:19;;;;;;;25.03;16.60;;;9.90;99.90;;;;;;493923;241;27903;-74
2024/03/23 02:48:20;;;;;;;25.80;17.13;;;9.90;99.90;;;;;;493844;241;28013;-75
2024/03/23 02:50:21;;;;;;;27.63;16.93;;;9.90;99.90;;;;;;493968;241;28127;-74
2024/03/23 02:52:23;;;;;;;26.87;17.77;;;9.90;99.90;;;;;;493948;241;28446;-74
2024/03/23 02:54:24;;;;;;;34.07;18.67;;;9.90;99.90;;;;;;493932;241;27910;-73
2024/03/23 02:56:25;;;;;;;27.27;16.93;;;9.80;99.90;;;;;;493916;241;27881;-74
2024/03/23 02:58:26;;;;;;;28.63;19.40;;;9.80;99.90;;;;;;493927;241;27958;-74
2024/03/23 03:00:27;;;;;;;28.60;17.87;;;9.80;99.90;;;;;;493948;241;27817;-73
2024/03/23 03:02:29;;;;;;;29.30;18.63;;;9.80;99.90;;;;;;493919;241;27659;-73
2024/03/23 03:04:30;;;;;;;26.97;17.30;;;9.80;99.90;;;;;;493895;241;27605;-74
2024/03/23 03:06:31;;;;;;;25.57;16.13;;;9.80;99.90;;;;;;493941;241;27876;-73
2024/03/23 03:08:33;;;;;;;30.43;17.87;;;9.80;99.90;;;;;;493920;241;28001;-74
2024/03/23 03:10:36;;;;;;;36.17;20.13;;;9.70;99.90;;;;;;493931;241;28171;-73
2024/03/23 03:12:35;;;;;;;28.57;18.70;;;9.70;99.90;;;;;;493771;241;28311;-74
2024/03/23 03:14:36;;;;;;;31.43;18.80;;;9.70;99.90;;;;;;493939;241;27987;-74
2024/03/23 03:16:38;;;;;;;31.13;18.80;;;9.70;99.90;;;;;;493969;241;27994;-73
2024/03/23 03:18:40;;;;;;;33.40;19.37;;;9.70;99.90;;;;;;493908;241;27847;-74
2024/03/23 03:20:40;;;;;;;29.30;17.50;;;9.70;99.90;;;;;;493854;241;27610;-73
2024/03/23 03:22:41;;;;;;;34.97;19.50;;;9.70;99.90;;;;;;493941;237;28355;-73
2024/03/23 03:24:43;;;;;;;29.27;17.30;;;9.80;99.90;;;;;;493982;241;27871;-75
2024/03/23 03:26:44;;;;;;;26.77;17.63;;;9.80;99.90;;;;;;493959;241;27482;-74
2024/03/23 03:28:48;;;;;;;31.33;17.90;;;9.80;99.90;;;;;;493881;241;28012;-74
2024/03/23 03:30:46;;;;;;;28.10;18.27;;;9.80;99.90;;;;;;493673;241;27822;-73
2024/03/23 03:32:48;;;;;;;28.90;17.97;;;9.70;99.90;;;;;;493945;241;27793;-73
2024/03/23 03:34:49;;;;;;;24.50;16.30;;;9.70;99.90;;;;;;493970;241;27987;-74
2024/03/23 03:36:50;;;;;;;25.60;16.23;;;9.70;99.90;;;;;;493938;241;27806;-73
2024/03/23 03:38:51;;;;;;;26.80;16.83;;;9.70;99.90;;;;;;493879;241;28577;-73
2024/03/23 03:40:53;;;;;;;23.50;15.27;;;9.70;99.90;;;;;;493963;241;28598;-75
2024/03/23 03:42:54;;;;;;;29.40;17.40;;;9.70;99.90;;;;;;493970;237;27942;-73
2024/03/23 03:44:55;;;;;;;29.60;17.00;;;9.70;99.90;;;;;;493946;241;27871;-74
2024/03/23 03:46:56;;;;;;;25.10;14.93;;;9.70;99.90;;;;;;493904;241;27589;-73
2024/03/23 03:48:58;;;;;;;22.07;14.60;;;9.70;99.90;;;;;;493900;241;27929;-74
2024/03/23 03:50:59;;;;;;;25.13;15.90;;;9.60;99.90;;;;;;494006;241;28114;-75
2024/03/23 03:53:00;;;;;;;23.37;14.40;;;9.70;99.90;;;;;;493965;241;27943;-73
2024/03/23 03:55:02;;;;;;;19.97;13.53;;;9.60;99.90;;;;;;493921;241;28084;-73
2024/03/23 03:57:03;;;;;;;20.60;12.37;;;9.60;99.90;;;;;;493894;241;27943;-72
2024/03/23 03:59:04;;;;;;;19.70;12.33;;;9.60;99.90;;;;;;493950;241;28375;-73
2024/03/23 04:01:05;;;;;;;20.23;12.70;;;9.70;99.90;;;;;;493949;241;28098;-74
2024/03/23 04:03:06;;;;;;;16.33;11.13;;;9.60;99.90;;;;;;493930;241;27838;-72
2024/03/23 04:05:08;;;;;;;15.63;10.50;;;9.60;99.90;;;;;;493877;241;28068;-73
2024/03/23 04:07:09;;;;;;;15.73;10.33;;;9.50;99.90;;;;;;493976;241;27997;-74
2024/03/23 04:09:10;;;;;;;13.90;9.10;;;9.50;99.90;;;;;;493931;241;28378;-73
2024/03/23 04:11:11;;;;;;;12.03;9.10;;;9.50;99.90;;;;;;493964;241;28135;-74
2024/03/23 04:13:13;;;;;;;14.00;9.00;;;9.50;99.90;;;;;;493928;237;28163;-73
2024/03/23 04:15:14;;;;;;;12.20;8.30;;;9.40;99.90;;;;;;493872;241;28326;-73
2024/03/23 04:17:16;;;;;;;8.90;7.07;;;9.40;99.90;;;;;;493953;241;27862;-74
2024/03/23 04:19:16;;;;;;;9.97;7.07;;;9.40;99.90;;;;;;493908;241;28004;-73
2024/03/23 04:21:18;;;;;;;8.70;6.20;;;9.30;99.90;;;;;;493945;241;27818;-73
2024/03/23 04:23:19;;;;;;;8.43;6.20;;;9.20;99.90;;;;;;493937;241;28026;-73
2024/03/23 04:25:20;;;;;;;10.43;6.10;;;9.20;99.90;;;;;;493966;237;27982;-73
2024/03/23 04:27:21;;;;;;;7.33;5.80;;;9.10;99.90;;;;;;494010;241;27893;-74
2024/03/23 04:29:23;;;;;;;6.20;5.60;;;9.00;99.90;;;;;;493951;241;27723;-73
2024/03/23 04:31:24;;;;;;;8.67;5.77;;;8.90;99.90;;;;;;493947;241;28153;-73
2024/03/23 04:33:25;;;;;;;6.20;5.30;;;8.90;99.90;;;;;;493949;241;27927;-73
2024/03/23 04:35:26;;;;;;;7.53;6.50;;;8.90;99.90;;;;;;493976;241;27961;-74
2024/03/23 04:37:28;;;;;;;6.13;5.53;;;8.90;99.90;;;;;;493989;241;27980;-74
2024/03/23 04:39:29;;;;;;;6.10;5.50;;;8.80;99.90;;;;;;493923;241;27681;-73
2024/03/23 04:41:31;;;;;;;6.20;5.60;;;8.70;99.90;;;;;;493980;241;28439;-73
2024/03/23 04:43:34;;;;;;;5.70;4.90;;;8.70;99.90;;;;;;493964;241;28642;-73
2024/03/23 04:45:36;;;;;;;6.23;5.63;;;8.60;99.90;;;;;;493993;241;27745;-74
2024/03/23 04:47:37;;;;;;;7.40;5.83;;;8.60;99.90;;;;;;493970;241;27793;-73
2024/03/23 04:49:38;;;;;;;5.60;4.87;;;8.50;99.90;;;;;;493906;241;27869;-73
2024/03/23 04:51:41;;;;;;;6.23;4.83;;;8.40;99.90;;;;;;493794;241;28014;-73
2024/03/23 04:53:41;;;;;;;5.93;4.60;;;8.20;99.90;;;;;;493850;241;27536;-73
2024/03/23 04:55:42;;;;;;;4.30;3.90;;;8.00;99.90;;;;;;493971;241;27974;-74
2024/03/23 04:57:43;;;;;;;3.53;3.23;;;8.00;99.90;;;;;;493953;241;27680;-73
2024/03/23 04:59:44;;;;;;;4.07;3.10;;;7.90;99.90;;;;;;493860;241;28073;-73
2024/03/23 05:01:46;;;;;;;3.13;2.83;;;7.80;99.90;;;;;;493984;241;27963;-75
2024/03/23 05:03:49;;;;;;;3.60;2.70;;;7.70;99.90;;;;;;493971;241;27836;-73
2024/03/23 05:05:48;;;;;;;2.70;2.50;;;7.60;99.90;;;;;;493855;241;28074;-73
2024/03/23 05:07:49;;;;;;;2.27;2.07;;;7.60;99.90;;;;;;493952;241;28364;-73
2024/03/23 05:09:51;;;;;;;2.40;2.20;;;7.50;99.90;;;;;;493904;241;28557;-73
2024/03/23 05:11:52;;;;;;;2.10;1.90;;;7.60;99.90;;;;;;494012;241;28561;-75
2024/03/23 05:13:53;;;;;;;1.70;1.60;;;7.50;99.90;;;;;;493977;241;28466;-74
2024/03/23 05:15:54;;;;;;;1.83;1.73;;;7.50;99.90;;;;;;493980;241;28085;-73
2024/03/23 05:17:56;;;;;;;1.97;1.87;;;7.50;99.90;;;;;;493964;241;27947;-73
2024/03/23 05:19:57;;;;;;;1.60;1.50;;;7.30;99.90;;;;;;493943;241;27979;-73
2024/03/23 05:21:59;;;;;;;1.63;1.53;;;7.20;99.90;;;;;;494013;241;28183;-75
2024/03/23 05:23:59;;;;;;;1.63;1.53;;;7.20;99.90;;;;;;493955;241;28042;-74
2024/03/23 05:26:01;;;;;;;1.93;1.83;;;7.20;99.90;;;;;;493966;241;27581;-74
2024/03/23 05:28:02;;;;;;;1.87;1.53;;;7.30;99.90;;;;;;493964;241;27729;-73
2024/03/23 05:30:03;;;;;;;1.50;1.40;;;7.30;99.90;;;;;;493849;241;27950;-74
2024/03/23 05:32:04;;;;;;;3.07;1.57;;;7.30;99.90;;;;;;494010;241;27906;-74
2024/03/23 05:34:06;;;;;;;1.60;1.50;;;7.30;99.90;;;;;;493952;241;27788;-73
2024/03/23 05:36:11;;;;;;;1.53;1.47;;;7.30;99.90;;;;;;493878;241;27980;-73
2024/03/23 05:38:08;;;;;;;1.30;1.20;;;7.30;99.90;;;;;;493636;241;27852;-74
2024/03/23 05:40:09;;;;;;;1.17;1.17;;;7.20;99.90;;;;;;493964;241;28105;-73
2024/03/23 05:42:11;;;;;;;1.17;1.17;;;7.10;99.90;;;;;;493966;237;27992;-73
2024/03/23 05:44:12;;;;;;;1.10;1.10;;;7.10;99.90;;;;;;493874;241;28476;-73
2024/03/23 05:46:13;;;;;;;1.40;1.30;;;7.10;99.90;;;;;;493936;241;28469;-73
2024/03/23 05:48:14;;;;;;;1.43;1.37;;;7.10;99.90;;;;;;493954;241;28480;-75
2024/03/23 05:50:16;;;;;;;1.10;1.10;;;7.10;99.90;;;;;;493975;241;28285;-74
2024/03/23 05:52:17;;;;;;;1.07;1.07;;;7.00;99.90;;;;;;493933;241;28303;-74
2024/03/23 05:54:18;;;;;;;1.40;1.30;;;7.00;99.90;;;;;;493903;241;27904;-72
2024/03/23 05:56:19;;;;;;;2.50;1.10;;;7.00;99.90;;;;;;493968;237;27731;-73
2024/03/23 05:58:21;;;;;;;1.20;1.20;;;6.90;99.90;;;;;;493895;241;27954;-74
2024/03/23 06:00:22;;;;;;;2.33;1.20;;;6.90;99.90;;;;;;493984;241;27741;-72
2024/03/23 06:02:23;;;;;;;4.30;1.37;;;6.80;99.90;;;;;;493936;241;28054;-74
2024/03/23 06:04:24;;;;;;;1.37;1.20;;;6.80;99.90;;;;;;493890;241;27947;-71
2024/03/23 06:06:26;;;;;;;1.57;1.30;;;6.80;99.90;;;;;;493982;241;27945;-71
2024/03/23 06:08:27;;;;;;;1.00;1.00;;;6.80;99.90;;;;;;493915;241;28105;-71
2024/03/23 06:10:28;;;;;;;1.03;1.03;;;6.80;99.90;;;;;;493936;241;27959;-71
2024/03/23 06:12:29;;;;;;;1.13;1.13;;;6.80;99.90;;;;;;493902;241;27990;-71
2024/03/23 06:14:31;;;;;;;1.17;1.17;;;6.70;99.90;;;;;;493925;241;28537;-75
2024/03/23 06:16:32;;;;;;;1.03;1.03;;;6.60;99.90;;;;;;493969;237;28573;-73
2024/03/23 06:18:33;;;;;;;2.07;1.03;;;6.60;99.90;;;;;;493913;241;28759;-73
2024/03/23 06:20:34;;;;;;;1.57;1.10;;;6.60;99.90;;;;;;493918;241;29265;-70
2024/03/23 06:22:36;;;;;;;1.30;1.20;;;6.60;99.90;;;;;;493883;241;28665;-73
2024/03/23 06:24:37;;;;;;;0.90;0.90;;;6.60;99.90;;;;;;493983;241;28554;-74
2024/03/23 06:26:38;;;;;;;1.10;1.10;;;6.60;99.90;;;;;;493949;241;28771;-73
2024/03/23 06:28:39;;;;;;;0.90;0.90;;;6.60;99.90;;;;;;493883;237;28827;-73
2024/03/23 06:30:41;;;;;;;1.20;1.10;;;6.60;99.90;;;;;;493899;241;27505;-73
2024/03/23 06:32:42;;;;;;;1.00;1.00;;;6.60;99.90;;;;;;493922;241;27596;-73
2024/03/23 06:34:43;;;;;;;1.00;1.00;;;6.70;99.90;;;;;;493955;241;28844;-73
2024/03/23 06:36:44;;;;;;;1.20;1.10;;;6.80;99.90;;;;;;493941;241;27949;-73
2024/03/23 06:38:46;;;;;;;1.97;1.03;;;6.80;99.90;;;;;;493893;241;28074;-73
2024/03/23 06:40:50;;;;;;;1.30;1.27;;;6.80;99.90;;;;;;493914;237;28259;-72
2024/03/23 06:42:48;;;;;;;1.30;1.20;;;6.90;99.90;;;;;;493691;237;29227;-73
2024/03/23 06:44:49;;;;;;;1.50;1.40;;;7.00;99.90;;;;;;493928;241;27867;-73
2024/03/23 06:46:51;;;;;;;1.30;1.30;;;7.00;99.90;;;;;;493949;241;27691;-73
2024/03/23 06:48:52;;;;;;;1.83;1.30;;;6.90;99.90;;;;;;493882;238;28029;-73
2024/03/23 06:50:53;;;;;;;3.30;1.40;;;6.80;99.90;;;;;;493984;241;28084;-74
2024/03/23 06:52:54;;;;;;;2.90;1.57;;;6.80;99.90;;;;;;493969;241;27911;-73
2024/03/23 06:54:56;;;;;;;3.90;1.80;;;6.90;99.90;;;;;;493961;241;28010;-74
2024/03/23 06:56:57;;;;;;;2.83;1.60;;;7.00;99.90;;;;;;493938;241;27986;-73
2024/03/23 06:58:58;;;;;;;4.90;1.83;;;7.00;99.90;;;;;;493910;241;27966;-73
2024/03/23 07:00:59;;;;;;;5.47;2.33;;;7.00;99.90;;;;;;494019;241;28128;-75
2024/03/23 07:03:01;;;;;;;2.07;1.70;;;7.00;99.90;;;;;;493983;241;28027;-73
2024/03/23 07:05:03;;;;;;;2.83;1.77;;;7.00;99.90;;;;;;493989;241;28169;-74
2024/03/23 07:07:03;;;;;;;7.60;2.20;;;7.10;99.90;;;;;;493942;241;27506;-73
2024/03/23 07:09:04;;;;;;;4.77;2.10;;;6.90;99.90;;;;;;493920;241;28317;-73
2024/03/23 07:11:06;;;;;;;4.07;2.73;;;6.90;99.90;;;;;;493996;241;28456;-75
2024/03/23 07:13:07;;;;;;;2.50;2.30;;;6.90;99.90;;;;;;493975;241;28423;-73
2024/03/23 07:15:08;;;;;;;5.37;2.20;;;6.80;99.90;;;;;;493947;241;28561;-73
2024/03/23 07:17:11;;;;;;;6.73;2.40;;;6.90;99.90;;;;;;493961;241;29408;-73
2024/03/23 07:19:11;;;;;;;8.50;2.63;;;6.80;99.90;;;;;;493922;241;27944;-73
2024/03/23 07:21:12;;;;;;;12.33;3.73;;;6.80;99.90;;;;;;493979;241;27969;-74
2024/03/23 07:23:13;;;;;;;6.60;3.20;;;6.80;99.90;;;;;;493958;241;28193;-73
2024/03/23 07:25:14;;;;;;;7.60;3.40;;;6.60;99.90;;;;;;493896;241;28848;-73
2024/03/23 07:27:16;;;;;;;6.97;3.40;;;6.60;99.90;;;;;;493970;241;28586;-75
2024/03/23 07:29:17;;;;;;;12.70;3.20;;;6.70;99.90;;;;;;493933;241;27709;-74
2024/03/23 07:31:18;;;;;;;7.30;3.00;;;6.70;99.90;;;;;;493976;241;28840;-74
2024/03/23 07:33:19;;;;;;;7.97;3.40;;;6.80;99.90;;;;;;493953;241;27927;-73
2024/03/23 07:35:21;;;;;;;8.40;3.10;;;6.90;99.90;;;;;;493929;241;28127;-73
2024/03/23 07:37:22;;;;;;;5.40;3.00;;;6.90;99.90;;;;;;493995;237;27532;-75
2024/03/23 07:39:24;;;;;;;3.60;2.70;;;7.10;99.90;;;;;;493928;241;28500;-73
2024/03/23 07:41:25;;;;;;;8.00;2.97;;;7.30;99.90;;;;;;493873;241;28587;-73
2024/03/23 07:43:26;;;;;;;4.80;3.30;;;7.20;99.90;;;;;;493954;241;28355;-73
2024/03/23 07:45:27;;;;;;;5.73;4.00;;;7.20;99.90;;;;;;493956;237;28279;-73
2024/03/23 07:47:28;;;;;;;6.73;3.30;;;7.30;99.90;;;;;;493930;241;28001;-74
2024/03/23 07:49:29;;;;;;;8.53;4.43;;;7.30;99.90;;;;;;493923;241;28404;-73
2024/03/23 07:51:31;;;;;;;10.57;3.80;;;7.20;99.90;;;;;;493946;241;27608;-74
2024/03/23 07:53:32;;;;;;;7.50;3.70;;;7.00;99.90;;;;;;493975;241;27964;-73
2024/03/23 07:55:33;;;;;;;11.70;3.70;;;7.10;99.90;;;;;;493960;241;28059;-74
2024/03/23 07:57:34;;;;;;;11.40;3.30;;;7.30;99.90;;;;;;493975;241;28105;-74
2024/03/23 07:59:36;;;;;;;9.07;4.47;;;7.50;99.90;;;;;;493925;241;27803;-72
2024/03/23 08:01:37;;;;;;;8.37;4.50;;;7.60;99.90;;;;;;493907;237;27901;-74
2024/03/23 08:03:38;;;;;;;8.80;3.67;;;7.60;99.90;;;;;;493983;241;28400;-75
2024/03/23 08:05:39;;;;;;;9.17;4.43;;;7.50;99.90;;;;;;493939;241;27968;-73
2024/03/23 08:07:41;;;;;;;6.90;3.90;;;7.50;99.90;;;;;;493958;241;27966;-74
2024/03/23 08:09:42;;;;;;;11.27;4.53;;;7.30;99.90;;;;;;493915;241;28011;-73
2024/03/23 08:11:45;;;;;;;12.07;4.60;;;7.20;99.90;;;;;;493912;241;28009;-73
2024/03/23 08:13:44;;;;;;;9.37;4.73;;;7.30;99.90;;;;;;493829;241;28464;-75
2024/03/23 08:15:46;;;;;;;11.47;4.30;;;7.40;99.90;;;;;;493962;241;28451;-73
2024/03/23 08:17:47;;;;;;;8.67;4.33;;;7.60;99.90;;;;;;493913;241;28473;-74
2024/03/23 08:19:48;;;;;;;11.20;5.27;;;7.70;99.90;;;;;;493918;241;28388;-73
2024/03/23 08:21:51;;;;;;;13.83;4.70;;;7.70;99.90;;;;;;493981;241;28046;-73
2024/03/23 08:23:51;;;;;;;10.27;4.90;;;7.60;99.90;;;;;;493877;241;27948;-73
2024/03/23 08:25:52;;;;;;;17.83;4.57;;;7.40;99.90;;;;;;493942;241;28076;-73
2024/03/23 08:27:53;;;;;;;14.07;5.50;;;7.40;99.90;;;;;;493922;241;27665;-74
2024/03/23 08:29:54;;;;;;;9.70;4.93;;;7.30;99.90;;;;;;493903;241;27907;-73
2024/03/23 08:31:56;;;;;;;11.90;4.50;;;7.30;99.90;;;;;;493985;241;28067;-73
2024/03/23 08:33:57;;;;;;;9.90;4.30;;;7.40;99.90;;;;;;493931;241;28011;-74
2024/03/23 08:35:58;;;;;;;12.40;5.10;;;7.70;99.90;;;;;;493935;241;27972;-73
2024/03/23 08:37:59;;;;;;;10.07;4.90;;;7.80;99.90;;;;;;493933;241;27965;-73
2024/03/23 08:40:01;;;;;;;8.20;5.33;;;7.90;99.90;;;;;;493899;237;27970;-74
2024/03/23 08:42:02;;;;;;;14.13;5.40;;;7.60;99.90;;;;;;493936;237;28565;-73
2024/03/23 08:44:03;;;;;;;13.47;5.50;;;7.60;99.90;;;;;;493910;241;28391;-74
2024/03/23 08:46:05;;;;;;;14.93;5.40;;;7.60;99.90;;;;;;493866;241;28657;-73
2024/03/23 08:48:06;;;;;;;12.40;5.40;;;7.40;99.90;;;;;;493860;241;28430;-73
2024/03/23 08:50:07;;;;;;;14.00;5.70;;;7.20;99.90;;;;;;493937;241;28052;-75
2024/03/23 08:52:08;;;;;;;13.20;5.30;;;7.30;99.90;;;;;;493935;241;27949;-73
2024/03/23 08:54:10;;;;;;;10.67;5.40;;;7.50;99.90;;;;;;493907;237;28136;-73
2024/03/23 08:56:11;;;;;;;12.40;5.40;;;7.30;99.90;;;;;;493877;241;28120;-74
2024/03/23 08:58:13;;;;;;;9.83;4.97;;;7.20;99.90;;;;;;493946;241;27912;-74
2024/03/23 09:00:14;;;;;;;14.07;4.90;;;7.60;99.90;;;;;;493863;241;28070;-74
2024/03/23 09:02:15;;;;;;;9.43;4.40;;;7.90;99.90;;;;;;493964;241;27942;-73
2024/03/23 09:04:16;;;;;;;10.17;4.97;;;8.00;99.90;;;;;;493918;241;27981;-74
2024/03/23 09:06:17;;;;;;;8.77;4.80;;;8.00;99.90;;;;;;493935;237;27861;-73
2024/03/23 09:08:18;;;;;;;8.73;5.10;;;7.90;99.90;;;;;;493975;241;28446;-74
2024/03/23 09:10:20;;;;;;;8.63;4.73;;;8.10;99.90;;;;;;493984;241;28366;-75
2024/03/23 09:12:21;;;;;;;10.40;4.80;;;8.20;99.90;;;;;;493930;237;28505;-74
2024/03/23 09:14:22;;;;;;;10.40;4.37;;;8.30;99.90;;;;;;493919;237;28566;-74
2024/03/23 09:16:23;;;;;;;8.77;4.60;;;8.60;99.90;;;;;;494022;241;28005;-75
2024/03/23 09:18:25;;;;;;;11.50;4.83;;;8.60;99.90;;;;;;493960;241;27934;-74
2024/03/23 09:20:26;;;;;;;10.00;4.60;;;8.60;99.30;;;;;;494002;237;28128;-74
2024/03/23 09:22:27;;;;;;;12.33;4.17;;;8.40;99.90;;;;;;493946;241;28024;-74
2024/03/23 09:24:28;;;;;;;8.67;4.40;;;8.30;99.90;;;;;;493920;241;28206;-74
2024/03/23 09:26:30;;;;;;;11.63;4.10;;;8.20;99.90;;;;;;494002;241;27979;-76
2024/03/23 09:28:31;;;;;;;14.33;4.20;;;8.40;99.70;;;;;;493904;241;28039;-73
2024/03/23 09:30:32;;;;;;;6.60;3.20;;;8.70;99.60;;;;;;493937;241;27987;-75
2024/03/23 09:32:33;;;;;;;9.67;4.53;;;8.80;98.90;;;;;;493917;241;28975;-73
2024/03/23 09:34:35;;;;;;;12.83;4.80;;;9.00;99.10;;;;;;493953;237;28434;-74
2024/03/23 09:36:36;;;;;;;11.27;5.13;;;9.00;99.60;;;;;;493798;241;27602;-74
2024/03/23 09:38:37;;;;;;;12.37;4.10;;;9.10;99.70;;;;;;493882;241;27591;-73
2024/03/23 09:40:38;;;;;;;7.60;3.50;;;9.00;98.70;;;;;;493900;241;28113;-74
2024/03/23 09:42:40;;;;;;;8.63;4.33;;;9.10;99.10;;;;;;493953;241;27947;-73
2024/03/23 09:44:41;;;;;;;13.30;4.27;;;9.10;98.40;;;;;;493984;241;28014;-74
2024/03/23 09:46:42;;;;;;;10.10;3.93;;;9.10;98.30;;;;;;493952;241;28009;-73
2024/03/23 09:48:46;;;;;;;6.43;4.17;;;9.20;98.70;;;;;;493882;241;27889;-73
2024/03/23 09:50:45;;;;;;;9.27;3.80;;;9.30;98.80;;;;;;493753;241;27886;-73
2024/03/23 09:52:46;;;;;;;5.33;3.90;;;9.00;98.10;;;;;;493979;241;28417;-76
2024/03/23 09:54:47;;;;;;;10.90;4.97;;;8.70;98.80;;;;;;493945;237;27900;-73
2024/03/23 09:56:48;;;;;;;11.17;4.23;;;8.90;99.60;;;;;;493930;241;28179;-73
2024/03/23 09:58:50;;;;;;;10.00;4.13;;;8.80;99.90;;;;;;493852;241;28012;-73
2024/03/23 10:00:51;;;;;;;10.20;4.60;;;8.70;99.90;;;;;;493962;241;27934;-74
2024/03/23 10:02:52;;;;;;;8.90;4.80;;;9.00;99.90;;;;;;493952;241;27972;-74
2024/03/23 10:04:53;;;;;;;12.80;5.07;;;9.20;99.90;;;;;;493917;241;27995;-73
2024/03/23 10:06:55;;;;;;;13.53;4.70;;;9.50;99.90;;;;;;493901;241;28422;-73
2024/03/23 10:08:56;;;;;;;10.93;4.50;;;9.90;99.90;;;;;;493896;241;28533;-73
2024/03/23 10:10:57;;;;;;;13.53;5.57;;;10.10;99.70;;;;;;493978;241;28473;-73
2024/03/23 10:12:58;;;;;;;9.93;5.10;;;10.20;99.50;;;;;;493944;241;28104;-74
2024/03/23 10:15:00;;;;;;;10.27;4.40;;;10.20;99.50;;;;;;493928;241;28092;-73
2024/03/23 10:17:01;;;;;;;9.37;4.67;;;10.30;98.90;;;;;;493765;241;27999;-74
2024/03/23 10:19:02;;;;;;;12.23;3.77;;;10.30;98.30;;;;;;493931;241;28089;-75
2024/03/23 10:21:03;;;;;;;8.80;4.40;;;9.90;97.60;;;;;;493966;241;28214;-73
2024/03/23 10:23:05;;;;;;;10.10;3.63;;;9.80;97.60;;;;;;493917;241;28430;-74
2024/03/23 10:25:06;;;;;;;5.10;3.60;;;9.80;98.40;;;;;;493944;237;27908;-73
2024/03/23 10:27:07;;;;;;;13.90;4.33;;;9.90;98.70;;;;;;493972;241;28099;-73
2024/03/23 10:29:11;;;;;;;9.67;3.60;;;9.80;98.40;;;;;;493951;241;28103;-74